sensor_id;sensor_type;location;lat;lon;timestamp;temperature;humidity
34143;DHT22;20419;10.658;106.724;2022-11-15T00:06:56;29.10;70.80
34143;DHT22;20419;10.658;106.724;2022-11-15T00:19:08;29.20;70.50
34143;DHT22;20419;10.658;106.724;2022-11-15T00:26:28;29.20;71.00
34143;DHT22;20419;10.658;106.724;2022-11-15T00:28:54;29.10;68.00
34143;DHT22;20419;10.658;106.724;2022-11-15T00:33:47;29.30;70.60
34143;DHT22;20419;10.658;106.724;2022-11-15T00:36:14;29.50;71.00
34143;DHT22;20419;10.658;106.724;2022-11-15T00:38:40;29.40;71.10
34143;DHT22;20419;10.658;106.724;2022-11-15T00:43:33;29.40;71.00
34143;DHT22;20419;10.658;106.724;2022-11-15T00:46:00;29.30;70.80
34143;DHT22;20419;10.658;106.724;2022-11-15T00:48:28;29.40;70.90
34143;DHT22;20419;10.658;106.724;2022-11-15T00:50:55;29.40;70.90
34143;DHT22;20419;10.658;106.724;2022-11-15T00:55:48;29.50;70.90
34143;DHT22;20419;10.658;106.724;2022-11-15T00:58:14;29.40;70.80
34143;DHT22;20419;10.658;106.724;2022-11-15T01:03:07;29.50;70.80
34143;DHT22;20419;10.658;106.724;2022-11-15T01:05:36;29.30;70.70
34143;DHT22;20419;10.658;106.724;2022-11-15T01:15:22;29.50;70.90
34143;DHT22;20419;10.658;106.724;2022-11-15T01:17:49;29.70;71.10
34143;DHT22;20419;10.658;106.724;2022-11-15T01:22:41;29.70;71.10
34143;DHT22;20419;10.658;106.724;2022-11-15T01:25:08;29.60;70.90
34143;DHT22;20419;10.658;106.724;2022-11-15T01:32:28;29.60;71.10
34143;DHT22;20419;10.658;106.724;2022-11-15T01:37:20;29.60;71.00
34143;DHT22;20419;10.658;106.724;2022-11-15T01:39:47;29.50;71.60
34143;DHT22;20419;10.658;106.724;2022-11-15T01:44:44;29.60;71.00
34143;DHT22;20419;10.658;106.724;2022-11-15T02:14:33;29.70;68.00
34143;DHT22;20419;10.658;106.724;2022-11-15T02:27:03;29.80;71.00
34143;DHT22;20419;10.658;106.724;2022-11-15T02:29:39;29.90;71.10
34143;DHT22;20419;10.658;106.724;2022-11-15T02:32:18;29.80;71.20
34143;DHT22;20419;10.658;106.724;2022-11-15T02:34:50;29.80;71.00
34143;DHT22;20419;10.658;106.724;2022-11-15T02:39:50;29.90;70.90
34143;DHT22;20419;10.658;106.724;2022-11-15T02:42:19;29.90;70.90
34143;DHT22;20419;10.658;106.724;2022-11-15T02:47:32;29.80;70.70
34143;DHT22;20419;10.658;106.724;2022-11-15T02:52:26;29.90;70.70
34143;DHT22;20419;10.658;106.724;2022-11-15T02:54:54;29.90;70.80
34143;DHT22;20419;10.658;106.724;2022-11-15T02:57:26;30.00;70.90
34143;DHT22;20419;10.658;106.724;2022-11-15T03:00:04;30.10;68.30
34143;DHT22;20419;10.658;106.724;2022-11-15T03:02:35;30.00;70.70
34143;DHT22;20419;10.658;106.724;2022-11-15T03:14:58;30.10;70.10
34143;DHT22;20419;10.658;106.724;2022-11-15T03:17:38;30.10;67.60
34143;DHT22;20419;10.658;106.724;2022-11-15T03:20:07;30.00;70.40
34143;DHT22;20419;10.658;106.724;2022-11-15T03:22:35;30.10;70.60
34143;DHT22;20419;10.658;106.724;2022-11-15T03:25:04;30.10;70.60
34143;DHT22;20419;10.658;106.724;2022-11-15T03:29:59;30.10;70.50
34143;DHT22;20419;10.658;106.724;2022-11-15T03:37:20;30.20;69.90
34143;DHT22;20419;10.658;106.724;2022-11-15T03:52:02;30.30;70.50
34143;DHT22;20419;10.658;106.724;2022-11-15T03:54:29;30.30;67.40
34143;DHT22;20419;10.658;106.724;2022-11-15T03:59:22;30.30;70.30
34143;DHT22;20419;10.658;106.724;2022-11-15T04:01:49;30.60;70.40
34143;DHT22;20419;10.658;106.724;2022-11-15T04:06:42;30.20;70.70
34143;DHT22;20419;10.658;106.724;2022-11-15T04:09:09;30.20;70.30
34143;DHT22;20419;10.658;106.724;2022-11-15T04:14:02;30.40;71.50
34143;DHT22;20419;10.658;106.724;2022-11-15T04:16:29;30.30;68.80
34143;DHT22;20419;10.658;106.724;2022-11-15T04:24:25;30.30;67.80
34143;DHT22;20419;10.658;106.724;2022-11-15T04:26:51;30.30;71.30
34143;DHT22;20419;10.658;106.724;2022-11-15T04:34:29;30.20;69.60
34143;DHT22;20419;10.658;106.724;2022-11-15T04:44:30;30.20;71.40
34143;DHT22;20419;10.658;106.724;2022-11-15T04:51:51;30.20;70.00
34143;DHT22;20419;10.658;106.724;2022-11-15T04:56:44;30.10;71.40
34143;DHT22;20419;10.658;106.724;2022-11-15T04:59:10;30.20;71.50
34143;DHT22;20419;10.658;106.724;2022-11-15T05:01:37;30.20;68.80
34143;DHT22;20419;10.658;106.724;2022-11-15T05:04:03;30.30;71.60
34143;DHT22;20419;10.658;106.724;2022-11-15T05:09:12;30.40;71.40
34143;DHT22;20419;10.658;106.724;2022-11-15T05:11:39;30.50;71.80
34143;DHT22;20419;10.658;106.724;2022-11-15T05:18:59;30.70;71.50
34143;DHT22;20419;10.658;106.724;2022-11-15T05:23:52;30.40;71.50
34143;DHT22;20419;10.658;106.724;2022-11-15T05:26:18;30.40;70.50
34143;DHT22;20419;10.658;106.724;2022-11-15T05:28:45;30.40;71.60
34143;DHT22;20419;10.658;106.724;2022-11-15T05:33:38;30.40;68.60
34143;DHT22;20419;10.658;106.724;2022-11-15T05:38:31;30.40;71.60
34143;DHT22;20419;10.658;106.724;2022-11-15T05:45:51;30.60;71.70
34143;DHT22;20419;10.658;106.724;2022-11-15T05:48:18;30.30;71.40
34143;DHT22;20419;10.658;106.724;2022-11-15T05:53:11;30.50;71.60
34143;DHT22;20419;10.658;106.724;2022-11-15T05:58:05;30.80;71.90
34143;DHT22;20419;10.658;106.724;2022-11-15T06:02:58;30.50;70.60
34143;DHT22;20419;10.658;106.724;2022-11-15T06:12:44;30.40;72.00
34143;DHT22;20419;10.658;106.724;2022-11-15T06:17:37;30.40;72.10
34143;DHT22;20419;10.658;106.724;2022-11-15T06:24:56;30.40;71.00
34143;DHT22;20419;10.658;106.724;2022-11-15T06:29:49;30.20;72.20
34143;DHT22;20419;10.658;106.724;2022-11-15T06:32:16;30.30;72.60
34143;DHT22;20419;10.658;106.724;2022-11-15T06:37:08;30.30;71.30
34143;DHT22;20419;10.658;106.724;2022-11-15T06:44:28;30.20;72.90
34143;DHT22;20419;10.658;106.724;2022-11-15T06:51:47;30.20;72.90
34143;DHT22;20419;10.658;106.724;2022-11-15T06:59:07;30.90;75.40
34143;DHT22;20419;10.658;106.724;2022-11-15T07:04:00;30.00;73.30
34143;DHT22;20419;10.658;106.724;2022-11-15T07:06:26;30.10;72.50
34143;DHT22;20419;10.658;106.724;2022-11-15T07:11:19;30.10;73.40
34143;DHT22;20419;10.658;106.724;2022-11-15T07:16:12;29.90;73.30
34143;DHT22;20419;10.658;106.724;2022-11-15T07:18:39;30.00;73.30
34143;DHT22;20419;10.658;106.724;2022-11-15T07:25:59;30.10;73.50
34143;DHT22;20419;10.658;106.724;2022-11-15T07:33:19;29.90;73.60
34143;DHT22;20419;10.658;106.724;2022-11-15T07:40:42;30.00;73.60
34143;DHT22;20419;10.658;106.724;2022-11-15T07:43:09;29.90;73.40
34143;DHT22;20419;10.658;106.724;2022-11-15T07:48:01;30.00;70.10
34143;DHT22;20419;10.658;106.724;2022-11-15T07:50:28;29.90;73.60
34143;DHT22;20419;10.658;106.724;2022-11-15T07:52:57;30.10;73.70
34143;DHT22;20419;10.658;106.724;2022-11-15T07:55:24;29.90;71.30
34143;DHT22;20419;10.658;106.724;2022-11-15T08:02:44;29.90;73.80
34143;DHT22;20419;10.658;106.724;2022-11-15T08:05:11;30.00;73.90
34143;DHT22;20419;10.658;106.724;2022-11-15T08:14:58;29.80;73.90
34143;DHT22;20419;10.658;106.724;2022-11-15T08:22:17;30.00;73.60
34143;DHT22;20419;10.658;106.724;2022-11-15T08:27:10;29.90;74.00
34143;DHT22;20419;10.658;106.724;2022-11-15T08:29:45;29.90;73.90
34143;DHT22;20419;10.658;106.724;2022-11-15T08:39:33;29.90;74.10
34143;DHT22;20419;10.658;106.724;2022-11-15T08:46:52;29.90;74.40
34143;DHT22;20419;10.658;106.724;2022-11-15T08:56:39;29.90;70.90
34143;DHT22;20419;10.658;106.724;2022-11-15T08:59:06;29.90;74.20
34143;DHT22;20419;10.658;106.724;2022-11-15T09:01:33;29.90;74.30
34143;DHT22;20419;10.658;106.724;2022-11-15T09:03:59;29.80;72.90
34143;DHT22;20419;10.658;106.724;2022-11-15T09:06:26;29.80;74.40
34143;DHT22;20419;10.658;106.724;2022-11-15T09:08:53;29.90;74.20
34143;DHT22;20419;10.658;106.724;2022-11-15T09:11:19;29.90;74.30
34143;DHT22;20419;10.658;106.724;2022-11-15T09:18:41;29.90;74.50
34143;DHT22;20419;10.658;106.724;2022-11-15T09:21:08;29.90;73.10
34143;DHT22;20419;10.658;106.724;2022-11-15T09:28:28;30.30;74.90
34143;DHT22;20419;10.658;106.724;2022-11-15T09:35:48;30.00;73.80
34143;DHT22;20419;10.658;106.724;2022-11-15T09:38:15;29.90;74.10
34143;DHT22;20419;10.658;106.724;2022-11-15T09:46:38;29.80;74.20
34143;DHT22;20419;10.658;106.724;2022-11-15T09:56:00;29.80;74.10
34143;DHT22;20419;10.658;106.724;2022-11-15T10:00:53;29.90;73.60
34143;DHT22;20419;10.658;106.724;2022-11-15T10:13:14;29.80;73.90
34143;DHT22;20419;10.658;106.724;2022-11-15T10:23:10;29.90;74.70
34143;DHT22;20419;10.658;106.724;2022-11-15T10:25:37;29.90;74.20
34143;DHT22;20419;10.658;106.724;2022-11-15T10:35:27;29.80;72.70
34143;DHT22;20419;10.658;106.724;2022-11-15T10:38:07;29.90;74.30
34143;DHT22;20419;10.658;106.724;2022-11-15T10:40:34;29.90;74.60
34143;DHT22;20419;10.658;106.724;2022-11-15T10:45:30;29.90;74.30
34143;DHT22;20419;10.658;106.724;2022-11-15T10:55:31;29.90;73.80
34143;DHT22;20419;10.658;106.724;2022-11-15T11:00:27;30.00;74.30
34143;DHT22;20419;10.658;106.724;2022-11-15T11:10:18;29.90;73.90
34143;DHT22;20419;10.658;106.724;2022-11-15T11:15:12;29.60;74.30
34143;DHT22;20419;10.658;106.724;2022-11-15T11:45:02;29.90;74.60
34143;DHT22;20419;10.658;106.724;2022-11-15T11:50:05;29.90;73.00
34143;DHT22;20419;10.658;106.724;2022-11-15T12:07:34;29.90;74.80
34143;DHT22;20419;10.658;106.724;2022-11-15T12:19:47;29.80;72.90
34143;DHT22;20419;10.658;106.724;2022-11-15T12:22:26;29.90;74.80
34143;DHT22;20419;10.658;106.724;2022-11-15T12:31:12;29.90;75.00
34143;DHT22;20419;10.658;106.724;2022-11-15T12:38:13;29.60;74.80
34143;DHT22;20419;10.658;106.724;2022-11-15T12:56:08;29.80;75.10
34143;DHT22;20419;10.658;106.724;2022-11-15T13:05:56;29.70;74.10
34143;DHT22;20419;10.658;106.724;2022-11-15T13:16:00;29.90;75.60
34143;DHT22;20419;10.658;106.724;2022-11-15T13:18:29;29.60;75.50
34143;DHT22;20419;10.658;106.724;2022-11-15T13:20:56;29.80;75.60
34143;DHT22;20419;10.658;106.724;2022-11-15T13:23:23;29.80;75.50
34143;DHT22;20419;10.658;106.724;2022-11-15T13:31:27;29.70;75.50
34143;DHT22;20419;10.658;106.724;2022-11-15T13:36:22;29.90;73.90
34143;DHT22;20419;10.658;106.724;2022-11-15T13:38:56;29.90;75.60
34143;DHT22;20419;10.658;106.724;2022-11-15T13:43:50;29.80;73.10
34143;DHT22;20419;10.658;106.724;2022-11-15T13:53:37;29.80;75.70
34143;DHT22;20419;10.658;106.724;2022-11-15T13:56:05;29.90;75.80
34143;DHT22;20419;10.658;106.724;2022-11-15T14:01:03;29.80;73.00
34143;DHT22;20419;10.658;106.724;2022-11-15T14:06:16;29.80;75.80
34143;DHT22;20419;10.658;106.724;2022-11-15T14:13:37;29.90;75.80
34143;DHT22;20419;10.658;106.724;2022-11-15T14:16:20;29.90;75.90
34143;DHT22;20419;10.658;106.724;2022-11-15T14:23:40;29.90;74.60
34143;DHT22;20419;10.658;106.724;2022-11-15T14:26:11;29.80;75.90
34143;DHT22;20419;10.658;106.724;2022-11-15T14:31:17;29.90;76.10
34143;DHT22;20419;10.658;106.724;2022-11-15T14:33:44;29.80;76.10
34143;DHT22;20419;10.658;106.724;2022-11-15T14:36:11;30.00;76.20
34143;DHT22;20419;10.658;106.724;2022-11-15T14:38:38;29.80;72.60
34143;DHT22;20419;10.658;106.724;2022-11-15T14:41:05;29.90;74.50
34143;DHT22;20419;10.658;106.724;2022-11-15T14:45:58;29.90;73.00
34143;DHT22;20419;10.658;106.724;2022-11-15T14:48:25;29.80;76.20
34143;DHT22;20419;10.658;106.724;2022-11-15T14:55:45;29.90;75.90
34143;DHT22;20419;10.658;106.724;2022-11-15T14:58:12;29.90;75.90
34143;DHT22;20419;10.658;106.724;2022-11-15T15:07:58;29.80;75.90
34143;DHT22;20419;10.658;106.724;2022-11-15T15:10:25;29.80;76.30
34143;DHT22;20419;10.658;106.724;2022-11-15T15:15:23;29.90;76.20
34143;DHT22;20419;10.658;106.724;2022-11-15T15:17:50;29.80;76.30
34143;DHT22;20419;10.658;106.724;2022-11-15T15:22:43;29.90;76.40
34143;DHT22;20419;10.658;106.724;2022-11-15T15:30:03;29.80;76.20
34143;DHT22;20419;10.658;106.724;2022-11-15T15:34:56;29.80;76.30
34143;DHT22;20419;10.658;106.724;2022-11-15T15:39:55;29.90;75.30
34143;DHT22;20419;10.658;106.724;2022-11-15T15:42:22;29.90;76.20
34143;DHT22;20419;10.658;106.724;2022-11-15T15:47:22;29.90;75.80
34143;DHT22;20419;10.658;106.724;2022-11-15T15:49:49;29.80;76.60
34143;DHT22;20419;10.658;106.724;2022-11-15T15:52:16;29.90;76.30
34143;DHT22;20419;10.658;106.724;2022-11-15T15:54:43;29.80;71.90
34143;DHT22;20419;10.658;106.724;2022-11-15T15:59:35;29.80;72.00
34143;DHT22;20419;10.658;106.724;2022-11-15T16:02:02;29.70;70.20
34143;DHT22;20419;10.658;106.724;2022-11-15T16:04:29;29.50;70.00
34143;DHT22;20419;10.658;106.724;2022-11-15T16:06:59;29.60;76.60
34143;DHT22;20419;10.658;106.724;2022-11-15T16:09:26;29.70;76.30
34143;DHT22;20419;10.658;106.724;2022-11-15T16:12:11;29.70;76.80
34143;DHT22;20419;10.658;106.724;2022-11-15T16:19:32;29.70;76.40
34143;DHT22;20419;10.658;106.724;2022-11-15T16:21:58;29.70;76.00
34143;DHT22;20419;10.658;106.724;2022-11-15T16:26:51;29.70;75.80
34143;DHT22;20419;10.658;106.724;2022-11-15T16:34:11;29.80;75.70
34143;DHT22;20419;10.658;106.724;2022-11-15T16:39:03;29.70;75.60
34143;DHT22;20419;10.658;106.724;2022-11-15T16:41:30;29.60;75.70
34143;DHT22;20419;10.658;106.724;2022-11-15T16:43:57;29.60;74.90
34143;DHT22;20419;10.658;106.724;2022-11-15T16:46:24;29.60;75.50
34143;DHT22;20419;10.658;106.724;2022-11-15T16:48:51;29.60;74.60
34143;DHT22;20419;10.658;106.724;2022-11-15T16:51:19;29.60;75.50
34143;DHT22;20419;10.658;106.724;2022-11-15T16:53:45;29.50;75.20
34143;DHT22;20419;10.658;106.724;2022-11-15T16:56:23;29.70;75.20
34143;DHT22;20419;10.658;106.724;2022-11-15T16:58:51;29.80;75.30
34143;DHT22;20419;10.658;106.724;2022-11-15T17:01:23;29.60;75.10
34143;DHT22;20419;10.658;106.724;2022-11-15T17:06:16;29.30;74.90
34143;DHT22;20419;10.658;106.724;2022-11-15T17:11:10;29.60;74.80
34143;DHT22;20419;10.658;106.724;2022-11-15T17:21:02;29.50;73.80
34143;DHT22;20419;10.658;106.724;2022-11-15T17:23:28;29.50;74.30
34143;DHT22;20419;10.658;106.724;2022-11-15T17:25:59;29.50;74.20
34143;DHT22;20419;10.658;106.724;2022-11-15T17:28:25;29.60;73.70
34143;DHT22;20419;10.658;106.724;2022-11-15T17:30:52;29.50;73.90
34143;DHT22;20419;10.658;106.724;2022-11-15T17:35:45;29.50;71.40
34143;DHT22;20419;10.658;106.724;2022-11-15T17:38:12;29.40;74.00
34143;DHT22;20419;10.658;106.724;2022-11-15T17:43:05;29.40;73.80
34143;DHT22;20419;10.658;106.724;2022-11-15T17:45:32;29.50;73.80
34143;DHT22;20419;10.658;106.724;2022-11-15T17:50:25;29.50;73.60
34143;DHT22;20419;10.658;106.724;2022-11-15T17:52:51;29.40;71.10
34143;DHT22;20419;10.658;106.724;2022-11-15T17:57:44;29.50;73.40
34143;DHT22;20419;10.658;106.724;2022-11-15T18:00:11;29.50;73.30
34143;DHT22;20419;10.658;106.724;2022-11-15T18:02:38;29.40;73.40
34143;DHT22;20419;10.658;106.724;2022-11-15T18:05:04;29.30;72.90
34143;DHT22;20419;10.658;106.724;2022-11-15T18:09:58;29.40;73.30
34143;DHT22;20419;10.658;106.724;2022-11-15T18:12:24;29.40;73.10
34143;DHT22;20419;10.658;106.724;2022-11-15T18:19:44;29.40;66.80
34143;DHT22;20419;10.658;106.724;2022-11-15T18:32:03;29.20;66.10
34143;DHT22;20419;10.658;106.724;2022-11-15T18:34:35;29.10;64.60
34143;DHT22;20419;10.658;106.724;2022-11-15T18:39:28;29.20;61.80
34143;DHT22;20419;10.658;106.724;2022-11-15T18:41:55;29.10;62.90
34143;DHT22;20419;10.658;106.724;2022-11-15T18:44:22;29.10;62.60
34143;DHT22;20419;10.658;106.724;2022-11-15T18:46:48;29.50;62.90
34143;DHT22;20419;10.658;106.724;2022-11-15T18:54:09;29.00;61.00
34143;DHT22;20419;10.658;106.724;2022-11-15T18:59:03;28.90;60.50
34143;DHT22;20419;10.658;106.724;2022-11-15T19:04:04;29.10;60.50
34143;DHT22;20419;10.658;106.724;2022-11-15T19:08:58;28.90;59.70
34143;DHT22;20419;10.658;106.724;2022-11-15T19:11:31;28.90;59.20
34143;DHT22;20419;10.658;106.724;2022-11-15T19:14:01;29.00;59.20
34143;DHT22;20419;10.658;106.724;2022-11-15T19:18:58;28.80;58.90
34143;DHT22;20419;10.658;106.724;2022-11-15T19:26:19;28.80;55.50
34143;DHT22;20419;10.658;106.724;2022-11-15T19:28:50;28.80;58.10
34143;DHT22;20419;10.658;106.724;2022-11-15T19:41:03;28.70;57.30
34143;DHT22;20419;10.658;106.724;2022-11-15T19:43:31;28.70;57.20
34143;DHT22;20419;10.658;106.724;2022-11-15T19:46:01;28.50;56.80
34143;DHT22;20419;10.658;106.724;2022-11-15T19:50:57;28.70;55.30
34143;DHT22;20419;10.658;106.724;2022-11-15T19:53:24;28.60;57.00
34143;DHT22;20419;10.658;106.724;2022-11-15T19:58:17;28.50;57.10
34143;DHT22;20419;10.658;106.724;2022-11-15T20:03:10;28.50;57.30
34143;DHT22;20419;10.658;106.724;2022-11-15T20:05:37;28.60;57.60
34143;DHT22;20419;10.658;106.724;2022-11-15T20:08:03;28.50;57.50
34143;DHT22;20419;10.658;106.724;2022-11-15T20:10:30;28.60;57.70
34143;DHT22;20419;10.658;106.724;2022-11-15T20:12:56;28.50;58.00
34143;DHT22;20419;10.658;106.724;2022-11-15T20:15:23;28.90;58.30
34143;DHT22;20419;10.658;106.724;2022-11-15T20:20:15;28.60;59.70
34143;DHT22;20419;10.658;106.724;2022-11-15T20:22:42;28.60;60.00
34143;DHT22;20419;10.658;106.724;2022-11-15T20:25:09;28.70;59.80
34143;DHT22;20419;10.658;106.724;2022-11-15T20:27:36;28.70;60.70
34143;DHT22;20419;10.658;106.724;2022-11-15T20:30:03;28.60;61.30
34143;DHT22;20419;10.658;106.724;2022-11-15T20:34:56;28.70;62.20
34143;DHT22;20419;10.658;106.724;2022-11-15T20:37:22;28.70;62.60
34143;DHT22;20419;10.658;106.724;2022-11-15T20:39:49;28.70;62.90
34143;DHT22;20419;10.658;106.724;2022-11-15T20:42:15;28.80;63.30
34143;DHT22;20419;10.658;106.724;2022-11-15T20:44:44;28.70;61.20
34143;DHT22;20419;10.658;106.724;2022-11-15T20:49:37;28.90;62.20
34143;DHT22;20419;10.658;106.724;2022-11-15T20:52:04;28.70;64.10
34143;DHT22;20419;10.658;106.724;2022-11-15T20:56:56;28.80;64.40
34143;DHT22;20419;10.658;106.724;2022-11-15T21:01:49;28.80;64.80
34143;DHT22;20419;10.658;106.724;2022-11-15T21:04:16;28.70;64.90
34143;DHT22;20419;10.658;106.724;2022-11-15T21:06:43;28.70;65.00
34143;DHT22;20419;10.658;106.724;2022-11-15T21:14:37;28.70;65.60
34143;DHT22;20419;10.658;106.724;2022-11-15T21:17:04;28.70;65.80
34143;DHT22;20419;10.658;106.724;2022-11-15T21:19:31;28.80;66.00
34143;DHT22;20419;10.658;106.724;2022-11-15T21:21:57;28.70;66.00
34143;DHT22;20419;10.658;106.724;2022-11-15T21:24:24;28.70;66.20
34143;DHT22;20419;10.658;106.724;2022-11-15T21:26:51;28.70;66.30
34143;DHT22;20419;10.658;106.724;2022-11-15T21:31:45;28.80;66.60
34143;DHT22;20419;10.658;106.724;2022-11-15T21:36:38;28.70;66.80
34143;DHT22;20419;10.658;106.724;2022-11-15T21:41:31;28.80;67.20
34143;DHT22;20419;10.658;106.724;2022-11-15T21:46:24;28.80;65.60
34143;DHT22;20419;10.658;106.724;2022-11-15T21:51:17;29.00;67.90
34143;DHT22;20419;10.658;106.724;2022-11-15T21:53:44;28.60;67.40
34143;DHT22;20419;10.658;106.724;2022-11-15T21:58:37;28.80;67.90
34143;DHT22;20419;10.658;106.724;2022-11-15T22:01:04;28.70;67.60
34143;DHT22;20419;10.658;106.724;2022-11-15T22:03:49;28.70;67.90
34143;DHT22;20419;10.658;106.724;2022-11-15T22:59:53;28.80;68.70
34143;DHT22;20419;10.658;106.724;2022-11-15T23:07:13;28.80;69.10
34143;DHT22;20419;10.658;106.724;2022-11-15T23:09:39;28.80;66.00
34143;DHT22;20419;10.658;106.724;2022-11-15T23:17:17;28.80;69.70
34143;DHT22;20419;10.658;106.724;2022-11-15T23:19:43;28.80;69.90
34143;DHT22;20419;10.658;106.724;2022-11-15T23:29:48;28.80;70.40
34143;DHT22;20419;10.658;106.724;2022-11-15T23:32:33;28.80;70.80
34143;DHT22;20419;10.658;106.724;2022-11-15T23:40:11;28.90;71.00
34143;DHT22;20419;10.658;106.724;2022-11-15T23:42:37;28.90;71.10
34143;DHT22;20419;10.658;106.724;2022-11-15T23:45:04;29.00;71.40
34143;DHT22;20419;10.658;106.724;2022-11-15T23:49:58;29.00;71.80
34143;DHT22;20419;10.658;106.724;2022-11-15T23:52:24;29.00;72.00
34143;DHT22;20419;10.658;106.724;2022-11-15T23:54:51;28.90;68.20
